createdAt,value
2019-01-28T00:01:37.584Z,7.53
2019-01-28T00:04:07.376Z,6.37
2019-01-28T00:06:37.023Z,7.75
2019-01-28T00:09:07.227Z,8.73
2019-01-28T00:11:36.894Z,7.90
2019-01-28T00:14:06.525Z,7.50
2019-01-28T00:16:36.182Z,7.90
2019-01-28T00:19:05.789Z,6.25
2019-01-28T00:21:35.716Z,8.78
2019-01-28T00:24:05.391Z,33.10
2019-01-28T00:26:35.005Z,7.75
2019-01-28T00:29:04.793Z,12.07
2019-01-28T00:31:34.464Z,7.05
2019-01-28T00:34:04.200Z,9.58
2019-01-28T00:36:33.838Z,12.15
2019-01-28T00:39:05.263Z,5.65
2019-01-28T00:41:36.420Z,6.42
2019-01-28T00:44:06.156Z,7.40
2019-01-28T00:46:35.779Z,10.60
2019-01-28T00:49:05.387Z,10.25
2019-01-28T00:51:35.016Z,6.40
2019-01-28T00:54:04.625Z,6.75
2019-01-28T00:56:34.350Z,9.35
2019-01-28T00:59:03.952Z,8.45
2019-01-28T01:01:33.584Z,9.85
2019-01-28T01:04:03.619Z,7.42
2019-01-28T01:06:33.261Z,7.90
2019-01-28T01:09:02.912Z,8.48
2019-01-28T01:11:34.069Z,7.80
2019-01-28T01:14:03.722Z,7.55
2019-01-28T01:16:34.257Z,7.67
2019-01-28T01:19:03.985Z,6.55
2019-01-28T01:21:33.661Z,10.85
2019-01-28T01:24:03.264Z,5.80
2019-01-28T01:26:32.935Z,6.28
2019-01-28T01:29:02.532Z,10.32
2019-01-28T01:31:32.168Z,5.47
2019-01-28T01:34:01.810Z,6.42
2019-01-28T01:36:31.446Z,7.28
2019-01-28T01:39:02.357Z,6.30
2019-01-28T01:41:33.564Z,7.08
2019-01-28T01:44:03.166Z,6.72
2019-01-28T01:46:32.782Z,7.35
2019-01-28T01:49:02.453Z,7.83
2019-01-28T01:51:32.121Z,9.53
2019-01-28T01:54:01.738Z,5.58
2019-01-28T01:56:31.351Z,7.00
2019-01-28T01:59:01.014Z,6.92
2019-01-28T02:01:30.625Z,8.93
2019-01-28T02:04:00.233Z,9.50
2019-01-28T02:06:29.864Z,5.90
2019-01-28T02:08:59.466Z,6.42
2019-01-28T02:11:29.107Z,9.40
2019-01-28T02:13:58.709Z,8.03
2019-01-28T02:16:28.337Z,14.75
2019-01-28T02:18:57.968Z,6.80
2019-01-28T02:21:27.580Z,7.30
2019-01-28T02:23:57.245Z,6.00
2019-01-28T02:26:26.885Z,6.03
2019-01-28T02:28:56.527Z,6.35
2019-01-28T02:31:26.143Z,5.55
2019-01-28T02:33:55.752Z,6.65
2019-01-28T02:36:25.385Z,6.45
2019-01-28T02:38:55.002Z,9.33
2019-01-28T02:41:24.663Z,5.87
2019-01-28T02:43:54.268Z,8.58
2019-01-28T02:46:23.941Z,7.50
2019-01-28T02:48:53.551Z,9.45
2019-01-28T02:51:23.183Z,7.70
2019-01-28T02:53:52.813Z,10.40
2019-01-28T02:56:22.450Z,7.10
2019-01-28T02:58:52.118Z,8.35
2019-01-28T03:01:21.734Z,10.30
2019-01-28T03:03:51.336Z,7.00
2019-01-28T03:06:20.964Z,6.97
2019-01-28T03:08:50.579Z,6.92
2019-01-28T03:11:20.236Z,6.42
2019-01-28T03:13:49.848Z,8.38
2019-01-28T03:16:19.454Z,10.32
2019-01-28T03:18:49.093Z,6.47
2019-01-28T03:21:18.731Z,6.37
2019-01-28T03:23:48.398Z,4.90
2019-01-28T03:26:18.005Z,6.20
2019-01-28T03:28:47.623Z,5.80
2019-01-28T03:31:17.250Z,9.00
2019-01-28T03:33:46.857Z,8.30
2019-01-28T03:36:16.488Z,4.08
2019-01-28T03:38:46.101Z,8.05
2019-01-28T03:41:15.759Z,8.23
2019-01-28T03:43:45.366Z,7.60
2019-01-28T03:46:15.064Z,6.65
2019-01-28T03:48:44.668Z,10.75
2019-01-28T03:51:14.298Z,5.65
2019-01-28T03:53:44.067Z,15.00
2019-01-28T03:56:13.674Z,5.95
2019-01-28T03:58:43.281Z,8.48
2019-01-28T04:01:12.928Z,5.58
2019-01-28T04:03:42.543Z,7.80
2019-01-28T04:06:12.168Z,6.30
2019-01-28T04:08:41.777Z,5.50
2019-01-28T04:11:11.437Z,7.15
2019-01-28T04:13:41.059Z,5.47
2019-01-28T04:16:10.673Z,6.00
2019-01-28T04:18:40.305Z,7.83
2019-01-28T04:21:09.974Z,6.95
2019-01-28T04:23:39.561Z,7.72
2019-01-28T04:26:09.171Z,6.12
2019-01-28T04:28:38.834Z,6.58
2019-01-28T04:31:08.455Z,5.03
2019-01-28T04:33:38.114Z,7.10
2019-01-28T04:36:07.713Z,5.97
2019-01-28T04:38:37.322Z,6.83
2019-01-28T04:41:06.982Z,7.70
2019-01-28T04:43:36.589Z,8.75
2019-01-28T04:46:06.197Z,8.35
2019-01-28T04:48:36.130Z,8.18
2019-01-28T04:51:05.741Z,7.97
2019-01-28T04:53:35.367Z,10.50
2019-01-28T04:56:05.002Z,7.20
2019-01-28T04:58:34.614Z,6.58
2019-01-28T05:01:04.264Z,6.50
2019-01-28T05:03:33.873Z,5.10
2019-01-28T05:06:03.485Z,5.55
2019-01-28T05:08:33.121Z,3.87
2019-01-28T05:11:02.729Z,8.00
2019-01-28T05:13:32.361Z,7.20
2019-01-28T05:16:02.024Z,6.92
2019-01-28T05:18:31.627Z,5.67
2019-01-28T05:21:01.239Z,9.03
2019-01-28T05:23:30.906Z,4.33
2019-01-28T05:26:00.501Z,5.80
2019-01-28T05:28:30.134Z,6.65
2019-01-28T05:30:59.736Z,4.75
2019-01-28T05:33:29.405Z,8.60
2019-01-28T05:35:59.017Z,5.72
2019-01-28T05:38:28.626Z,7.20
2019-01-28T05:40:58.252Z,4.95
2019-01-28T05:43:27.861Z,5.87
2019-01-28T05:45:57.520Z,7.12
2019-01-28T05:48:27.131Z,8.83
2019-01-28T05:50:56.741Z,7.33
2019-01-28T05:53:26.393Z,7.75
2019-01-28T05:55:56.004Z,3.50
2019-01-28T05:58:25.609Z,7.67
2019-01-28T06:00:55.246Z,5.83
2019-01-28T06:03:24.906Z,7.45
2019-01-28T06:05:54.514Z,8.38
2019-01-28T06:08:24.168Z,7.58
2019-01-28T06:10:53.810Z,8.60
2019-01-28T06:13:23.476Z,8.25
2019-01-28T06:15:53.085Z,8.18
2019-01-28T06:18:22.738Z,24.18
2019-01-28T06:20:52.356Z,21.70
2019-01-28T06:23:21.988Z,15.63
2019-01-28T06:25:51.705Z,5.67
2019-01-28T06:28:21.312Z,7.60
2019-01-28T06:30:50.940Z,7.03
2019-01-28T06:33:20.604Z,4.78
2019-01-28T06:35:50.261Z,8.10
2019-01-28T06:38:19.874Z,6.60
2019-01-28T06:40:49.508Z,18.02
2019-01-28T06:43:19.144Z,17.02
2019-01-28T06:45:48.822Z,16.12
2019-01-28T06:48:18.423Z,6.60
2019-01-28T06:50:48.103Z,6.10
2019-01-28T06:53:17.728Z,9.75
2019-01-28T06:55:47.337Z,7.53
2019-01-28T06:58:16.973Z,15.23
2019-01-28T07:00:46.581Z,10.45
2019-01-28T07:03:16.725Z,12.58
2019-01-28T07:05:46.322Z,17.12
2019-01-28T07:08:15.962Z,10.23
2019-01-28T07:10:45.577Z,18.73
2019-01-28T07:13:15.212Z,11.85
2019-01-28T07:15:44.820Z,8.05
2019-01-28T07:18:15.765Z,10.75
2019-01-28T07:20:45.379Z,15.28
2019-01-28T07:23:15.457Z,17.17
2019-01-28T07:25:45.166Z,14.43
2019-01-28T07:28:14.778Z,13.78
2019-01-28T07:30:44.452Z,18.77
2019-01-28T07:33:14.293Z,15.80
2019-01-28T07:35:43.956Z,13.70
2019-01-28T07:38:13.580Z,11.93
2019-01-28T07:40:43.230Z,11.12
2019-01-28T07:43:12.842Z,34.23
2019-01-28T07:45:45.507Z,13.38
2019-01-28T07:48:13.766Z,14.85
2019-01-28T07:50:43.391Z,15.23
2019-01-28T07:53:13.013Z,20.77
2019-01-28T07:55:42.657Z,31.97
2019-01-28T07:58:12.290Z,19.27
2019-01-28T08:00:41.920Z,39.63
2019-01-28T08:03:11.561Z,16.00
2019-01-28T08:05:41.177Z,15.05
2019-01-28T08:08:10.811Z,19.07
2019-01-28T08:10:40.425Z,17.77
2019-01-28T08:13:10.105Z,27.32
2019-01-28T08:15:39.716Z,17.92
2019-01-28T08:18:11.003Z,15.20
2019-01-28T08:20:40.588Z,23.12
2019-01-28T08:23:10.221Z,36.60
2019-01-28T08:25:39.848Z,16.23
2019-01-28T08:28:09.486Z,17.80
2019-01-28T08:30:39.196Z,27.30
2019-01-28T08:33:08.838Z,14.38
2019-01-28T08:35:38.501Z,17.12
2019-01-28T08:38:08.139Z,13.32
2019-01-28T08:40:37.732Z,11.97
2019-01-28T08:43:07.384Z,15.40
2019-01-28T08:45:36.997Z,14.05
2019-01-28T08:48:06.612Z,14.83
2019-01-28T08:50:36.248Z,11.48
2019-01-28T08:53:05.909Z,12.45
2019-01-28T08:55:35.522Z,14.98
2019-01-28T08:58:05.182Z,18.42
2019-01-28T09:00:37.123Z,12.53
2019-01-28T09:03:06.773Z,18.05
2019-01-28T09:05:36.380Z,15.25
2019-01-28T09:08:07.021Z,17.50
2019-01-28T09:10:36.683Z,11.93
2019-01-28T09:13:06.390Z,15.32
2019-01-28T09:15:36.054Z,15.40
2019-01-28T09:18:06.069Z,12.50
2019-01-28T09:20:35.729Z,17.05
2019-01-28T09:23:05.386Z,14.28
2019-01-28T09:25:34.992Z,9.18
2019-01-28T09:28:04.606Z,12.45
2019-01-28T09:30:35.445Z,15.95
2019-01-28T09:33:05.458Z,20.62
2019-01-28T09:35:35.069Z,18.50
2019-01-28T09:38:05.002Z,10.53
2019-01-28T09:40:38.000Z,19.90
2019-01-28T09:43:07.942Z,17.30
2019-01-28T09:45:41.554Z,9.73
2019-01-28T09:48:12.918Z,14.55
2019-01-28T09:50:42.550Z,12.45
2019-01-28T09:53:12.406Z,11.33
2019-01-28T09:55:42.037Z,19.45
2019-01-28T09:58:11.632Z,11.60
2019-01-28T16:23:41.053Z,19.07
2019-01-28T16:26:10.795Z,14.65
2019-01-28T16:28:40.416Z,18.15
2019-01-28T16:31:10.054Z,16.73
2019-01-28T16:33:39.659Z,19.52
2019-01-28T16:36:09.300Z,15.70
2019-01-28T16:38:38.928Z,13.32
2019-01-28T16:41:08.662Z,34.90
2019-01-28T16:43:38.325Z,23.57
2019-01-28T16:46:08.524Z,16.35
2019-01-28T16:48:38.425Z,15.08
2019-01-28T16:51:08.102Z,18.55
2019-01-28T16:53:37.718Z,17.90
2019-01-28T16:56:07.354Z,19.90
2019-01-28T16:58:36.974Z,21.50
2019-01-28T17:01:06.641Z,16.97
2019-01-28T17:03:37.362Z,17.87
2019-01-28T17:06:07.017Z,27.48
2019-01-28T17:08:36.631Z,16.87
2019-01-28T17:11:06.325Z,24.63
2019-01-28T17:13:35.943Z,20.52
2019-01-28T17:16:05.587Z,16.05
2019-01-28T17:18:35.251Z,14.83
2019-01-28T17:21:04.865Z,24.20
2019-01-28T17:23:34.486Z,16.07
2019-01-28T17:26:04.126Z,18.25
2019-01-28T17:28:33.981Z,16.15
2019-01-28T17:31:03.593Z,18.07
2019-01-28T17:33:33.502Z,21.97
2019-01-28T17:36:03.121Z,14.30
2019-01-28T17:38:32.734Z,17.10
2019-01-28T17:41:02.384Z,12.58
2019-01-28T17:43:32.009Z,18.00
2019-01-28T17:46:01.618Z,22.58
2019-01-28T17:48:31.285Z,12.43
2019-01-28T17:51:00.897Z,15.28
2019-01-28T17:53:30.507Z,17.30
2019-01-28T17:56:00.176Z,13.83
2019-01-28T17:58:29.785Z,18.65
2019-01-28T18:00:59.392Z,21.23
2019-01-28T18:03:29.041Z,28.85
2019-01-28T18:05:58.700Z,17.57
2019-01-28T18:08:28.317Z,18.12
2019-01-28T18:10:57.924Z,23.85
2019-01-28T18:13:27.670Z,17.23
2019-01-28T18:15:57.276Z,19.35
2019-01-28T18:18:26.909Z,22.80
2019-01-28T18:20:56.529Z,20.95
2019-01-28T18:23:27.796Z,18.40
2019-01-28T18:25:57.413Z,24.18
2019-01-28T18:28:27.290Z,26.45
2019-01-28T18:30:56.986Z,21.90
2019-01-28T18:33:26.593Z,14.68
2019-01-28T18:35:56.229Z,22.07
2019-01-28T18:38:25.890Z,21.42
2019-01-28T18:40:55.510Z,22.52
2019-01-28T18:43:25.151Z,23.45
2019-01-28T18:45:54.789Z,27.85
2019-01-28T18:48:24.425Z,23.60
2019-01-28T18:50:59.503Z,19.05
2019-01-28T18:53:25.337Z,17.98
2019-01-28T18:55:55.756Z,21.80
2019-01-28T18:58:25.701Z,20.82
2019-01-28T19:00:55.430Z,21.75
2019-01-28T19:03:25.503Z,26.48
2019-01-28T19:05:56.694Z,30.00
2019-01-28T19:08:27.921Z,18.50
2019-01-28T19:11:08.067Z,17.67
2019-01-28T19:13:39.296Z,19.10
2019-01-28T19:16:13.462Z,24.47
2019-01-28T19:18:44.698Z,28.15
2019-01-28T19:21:15.880Z,14.80
2019-01-28T19:23:45.514Z,17.17
2019-01-28T19:26:15.152Z,21.35
2019-01-28T19:28:44.760Z,22.17
2019-01-28T19:31:14.435Z,22.75
2019-01-28T19:33:44.079Z,20.32
2019-01-28T19:36:13.732Z,20.02
2019-01-28T19:38:44.753Z,20.10
2019-01-28T19:41:14.810Z,28.52
2019-01-28T19:43:44.765Z,25.48
2019-01-28T19:46:14.482Z,22.15
2019-01-28T19:48:44.382Z,22.67
2019-01-28T19:51:15.867Z,15.40
2019-01-28T19:53:46.161Z,28.00
2019-01-28T19:56:16.677Z,17.55
2019-01-28T19:58:46.451Z,20.40
2019-01-28T20:01:16.147Z,20.70
2019-01-28T20:03:45.930Z,23.67
2019-01-28T20:06:15.630Z,17.67
2019-01-28T20:08:45.564Z,24.90
2019-01-28T20:11:15.634Z,21.95
2019-01-28T20:13:45.419Z,25.95
2019-01-28T20:16:15.278Z,19.42
2019-01-28T20:18:45.108Z,28.67
2019-01-28T20:21:15.056Z,24.27
2019-01-28T20:23:45.766Z,23.92
2019-01-28T20:26:15.453Z,25.95
2019-01-28T20:28:45.128Z,32.53
2019-01-28T20:31:14.809Z,35.35
2019-01-28T20:33:44.492Z,28.30
2019-01-28T20:36:14.101Z,28.00
2019-01-28T20:38:43.790Z,28.98
2019-01-28T20:41:13.434Z,25.80
2019-01-28T20:43:43.072Z,33.25
2019-01-28T20:46:12.717Z,28.98
2019-01-28T20:48:42.335Z,25.75
2019-01-28T20:51:12.039Z,25.30
2019-01-28T20:53:41.683Z,25.30
2019-01-28T20:56:11.752Z,23.47
2019-01-28T20:58:43.255Z,30.30
2019-01-28T21:01:13.088Z,25.55
2019-01-28T21:03:42.763Z,28.23
2019-01-28T21:06:12.457Z,33.60
2019-01-28T21:08:42.133Z,33.53
2019-01-28T21:11:11.785Z,28.07
2019-01-28T21:13:41.780Z,26.12
2019-01-28T21:16:11.495Z,21.40
2019-01-28T21:18:41.137Z,18.73
2019-01-28T21:21:10.766Z,31.00
2019-01-28T21:23:40.445Z,28.65
2019-01-28T21:26:10.067Z,23.07
2019-01-28T21:28:39.685Z,25.65
2019-01-28T21:31:09.325Z,30.90
2019-01-28T21:33:38.999Z,24.98
2019-01-28T21:36:12.982Z,34.58
2019-01-28T21:38:44.214Z,25.20
2019-01-28T21:41:13.961Z,26.33
2019-01-28T21:43:43.700Z,22.35
2019-01-28T21:46:13.327Z,38.95
2019-01-28T21:48:43.020Z,24.25
2019-01-28T21:51:12.937Z,37.17
2019-01-28T21:53:43.018Z,26.15
2019-01-28T21:56:12.637Z,27.70
2019-01-28T21:58:42.381Z,25.65
2019-01-28T22:01:12.026Z,19.82
2019-01-28T22:03:42.054Z,30.08
2019-01-28T22:06:11.645Z,21.48
2019-01-28T22:08:42.537Z,28.90
2019-01-28T22:11:12.209Z,23.27
2019-01-28T22:13:41.858Z,23.35
2019-01-28T22:16:11.479Z,27.20
2019-01-28T22:18:41.571Z,29.67
2019-01-28T22:21:12.685Z,25.08
2019-01-28T22:23:42.496Z,28.47
2019-01-28T22:26:12.093Z,29.05
2019-01-28T22:28:41.726Z,25.23
2019-01-28T22:31:11.393Z,29.55
2019-01-28T22:33:41.018Z,33.67
2019-01-28T22:36:10.658Z,30.68
2019-01-28T22:38:40.570Z,26.42
2019-01-28T22:41:10.844Z,25.60
2019-01-28T22:43:40.553Z,30.48
2019-01-28T22:46:10.171Z,25.43
2019-01-28T22:48:39.788Z,31.85
2019-01-28T22:51:09.449Z,26.55
2019-01-28T22:53:39.080Z,28.15
2019-01-28T22:56:08.741Z,27.95
2019-01-28T22:58:38.463Z,32.98
2019-01-28T23:01:14.186Z,33.30
2019-01-28T23:03:43.828Z,28.80
2019-01-28T23:06:13.441Z,26.95
2019-01-28T23:08:43.113Z,27.48
2019-01-28T23:11:12.737Z,22.60
2019-01-28T23:13:43.500Z,27.90
2019-01-28T23:16:13.121Z,24.27
2019-01-28T23:18:42.729Z,31.50
2019-01-28T23:21:12.369Z,24.82
2019-01-28T23:23:41.989Z,25.70
2019-01-28T23:26:11.629Z,25.62
2019-01-28T23:28:41.344Z,31.68
2019-01-28T23:31:10.969Z,22.22
2019-01-28T23:33:40.592Z,26.20
2019-01-28T23:36:10.225Z,22.95
2019-01-28T23:38:39.837Z,30.62
2019-01-28T23:41:09.508Z,25.32
2019-01-28T23:43:39.126Z,26.93
2019-01-28T23:46:08.767Z,22.90
2019-01-28T23:48:38.414Z,28.85
2019-01-28T23:51:08.066Z,23.75
2019-01-28T23:53:37.714Z,29.12
2019-01-28T23:56:07.360Z,21.95
2019-01-28T23:58:37.000Z,28.80
